Aeroporto :
LOGIN :

Iscrizione | Disclaimer

   EN    FR    IT 

 










Sommario :    VFR   VFR Marginale   IFR   IFR Intensivo   IFR Molto Intensivo
Visibilità : 
Base nubi : 
>= 8 km
>= 3000ft
5 / 8 km
1000 / 3000 ft
1500m / 5 km
500 / 1000 ft
800 / 1500m
200 / 500 ft
< 800m
< 200 ft
Simboli :   Temporali  Nebbia  Neve Forte  Precipitazioni Forti  Vento > 20 kt
SIGMETs :   Varie  Temporali  Ghiacco  Turbolenza  Onda orograficha  Ceneri Vulcaniche






- Altitudine del aeroporto : 335 ft
- Codice IATA : BEG


LYBE - Belgrade Nikola Tesla

ULTIMO METAR :
  • 051630Z 26006KT 220V280 7000 OVC009 00/M01 Q1029 NOSIG

METARs OBSOLETI :
  • 051600Z 26005KT 7000 OVC008 00/M01 Q1029 NOSIG
  • 051530Z 23006KT 8000 OVC008 00/M01 Q1029 NOSIG
  • 051500Z 24006KT 5000 BR OVC007 00/M01 Q1029 NOSIG
  • 051430Z 22005KT 5000 BR BKN007 00/M01 Q1029 NOSIG
  • 051400Z 24006KT 5000 BR BKN007 00/M01 Q1029 NOSIG

TAF TAF LYBE
Valido dal 05 a 12 ore il 06 a 12 ore UTC


051100Z 0512/0612 25006KT 2000 BR BKN003 TX01/0512Z TNM04/0605Z
TEMPO 0512/0515 5000 SCT005
BECMG 0520/0522 0300 FZFG VV002
BECMG 0610/0612 2000 BR BKN003



MetMap, La meteo Aeronautica in un colpo d'occhio ! - Copyright ORBIFLY Dicembre 2007 - Disclaimer

ORBIFLY MET'MAP TEAM :

Programmazione e sviluppo : Alexandra Zaïnal
Concezione : Baudouin d'Aumeries
Aiuto per la programmazione : Marc-Olivier Méhu
Supporto tecnico e logistico : Manuel Goepfert
Aiuto per la traduzione : Arnaldo La Scala

Contatto : metmap@orbifly.com




FONTI E CREDITI :

   NOAA